Time;durP1;ratioP1;P1;durP2;ratioP2;P2;SDS_P1;SDS_P2;PMS_P1;PMS_P2;Temp;Humidity;BMP_temperature;BMP_pressure;BME280_temperature;BME280_humidity;BME280_pressure;Samples;Min_cycle;Max_cycle;Signal;HPM_P1;HPM_P2
2022/10/25 00:01:25;;;;;;;12.18;7.85;;;;;;;20.00;43.50;101026.22;1756290;81;21008;-78
2022/10/25 00:03:52;;;;;;;12.15;7.85;;;;;;;19.99;43.54;101017.11;1740156;81;20985;-78
2022/10/25 00:06:18;;;;;;;11.00;7.40;;;;;;;19.99;43.56;101014.91;1740701;81;21151;-78
2022/10/25 00:08:50;;;;;;;10.08;7.40;;;;;;;20.00;43.56;101009.64;1740270;81;21464;-78
2022/10/25 00:11:21;;;;;;;12.37;8.13;;;;;;;19.99;43.55;101003.30;1740221;81;21044;-79
2022/10/25 00:13:48;;;;;;;;;;;;;;;19.99;43.54;100996.40;1741870;81;21104;-79
2022/10/25 00:16:17;;;;;;;11.63;8.40;;;;;;;19.99;43.56;101004.69;1740278;81;20154;-78
2022/10/25 00:18:44;;;;;;;12.47;8.28;;;;;;;19.98;43.55;101000.87;1740050;81;21616;-78
2022/10/25 00:21:10;;;;;;;12.18;8.30;;;;;;;19.98;43.56;100996.72;1740159;81;21004;-80
2022/10/25 00:23:36;;;;;;;10.15;8.03;;;;;;;19.97;43.56;100998.66;1740465;81;21586;-80
2022/10/25 00:26:08;;;;;;;14.05;8.08;;;;;;;19.98;43.56;101000.87;1746028;80;21335;-78
2022/10/25 00:28:34;;;;;;;12.37;7.78;;;;;;;19.98;43.55;101001.69;1746156;82;21004;-78
2022/10/25 00:31:08;;;;;;;12.28;8.08;;;;;;;19.98;43.58;101004.45;1740125;81;21332;-78
2022/10/25 00:33:35;;;;;;;12.65;8.13;;;;;;;19.99;43.55;101004.69;1740131;81;20988;-78
2022/10/25 00:36:17;;;;;;;12.40;8.60;;;;;;;19.99;43.55;101000.54;1756975;79;21090;-79
2022/10/25 00:38:44;;;;;;;12.93;8.43;;;;;;;19.99;43.55;101004.69;1751334;79;21407;-78
2022/10/25 00:41:13;;;;;;;13.15;8.43;;;;;;;19.97;43.55;100989.00;1740387;81;21095;-78
2022/10/25 00:43:43;;;;;;;13.32;8.55;;;;;;;19.98;43.54;100997.55;1740302;81;20972;-78
2022/10/25 00:46:24;;;;;;;14.47;8.20;;;;;;;19.98;43.55;100993.96;1740164;81;21131;-78
2022/10/25 00:49:13;;;;;;;13.72;8.65;;;;;;;19.98;43.54;100998.93;1734536;81;21095;-78
2022/10/25 00:51:53;;;;;;;12.18;8.65;;;;;;;19.98;43.55;101002.25;1739073;82;21119;-78
2022/10/25 00:54:24;;;;;;;13.05;9.03;;;;;;;19.98;43.52;100999.48;1740327;82;21107;-78
2022/10/25 00:56:50;;;;;;;11.95;8.25;;;;;;;19.96;43.53;100994.27;1739933;81;21491;-79
2022/10/25 00:59:20;;;;;;;10.80;8.98;;;;;;;19.97;43.52;100974.38;1740116;81;21091;-79
2022/10/25 01:01:46;;;;;;;11.50;8.40;;;;;;;19.96;43.54;100973.55;1738154;82;21111;-78
2022/10/25 01:04:15;;;;;;;13.15;8.78;;;;;;;19.97;43.54;100971.61;1727250;82;21431;-79
2022/10/25 01:06:45;;;;;;;10.88;8.25;;;;;;;19.96;43.54;100967.20;1731983;81;21350;-78
2022/10/25 01:09:14;;;;;;;11.65;8.28;;;;;;;19.96;43.54;100968.03;1731860;82;21091;-78
2022/10/25 01:11:41;;;;;;;13.45;8.63;;;;;;;19.96;43.52;100964.45;1731885;81;21083;-78
2022/10/25 01:14:09;;;;;;;10.55;8.63;;;;;;;19.97;43.54;100960.56;1732188;82;21063;-78
2022/10/25 01:16:55;;;;;;;12.73;8.48;;;;;;;19.97;43.53;100957.80;1732186;81;21227;-78
2022/10/25 01:20:10;;;;;;;10.98;8.50;;;;;;;19.96;43.53;100959.74;1732100;81;21056;-79
2022/10/25 01:23:03;;;;;;;13.70;8.58;;;;;;;19.96;43.53;100954.22;1732364;81;21052;-78
2022/10/25 01:26:18;;;;;;;11.50;8.43;;;;;;;19.95;43.51;100947.05;1731164;81;21126;-78
2022/10/25 01:29:28;;;;;;;15.13;8.45;;;;;;;19.95;43.50;100949.00;1669780;84;21038;-78
2022/10/25 01:32:02;;;;;;;13.58;8.55;;;;;;;19.94;43.47;100948.77;1669467;84;21079;-79
2022/10/25 01:34:32;;;;;;;12.63;8.20;;;;;;;19.93;43.48;100945.74;1712590;82;21653;-77
2022/10/25 01:37:10;;;;;;;11.03;7.95;;;;;;;19.93;43.51;100941.60;1703957;82;21055;-78
2022/10/25 01:40:06;;;;;;;11.35;8.00;;;;;;;19.92;43.54;100933.88;1731448;82;21064;-77
2022/10/25 01:42:41;;;;;;;11.15;8.30;;;;;;;19.92;43.55;100934.44;1722132;82;21040;-78
2022/10/25 01:45:29;;;;;;;12.82;8.53;;;;;;;19.92;43.53;100933.05;1732222;82;21134;-78
2022/10/25 01:48:22;;;;;;;13.65;8.03;;;;;;;19.93;43.55;100936.89;1732051;82;21011;-78
2022/10/25 01:50:48;;;;;;;11.20;8.03;;;;;;;19.91;43.55;100929.47;1731906;82;21042;-78
2022/10/25 01:53:14;;;;;;;9.48;7.55;;;;;;;19.92;43.54;100930.30;1733391;82;21090;-78
2022/10/25 01:55:55;;;;;;;13.43;8.48;;;;;;;19.92;43.58;100928.91;1733835;81;21106;-78
2022/10/25 01:58:53;;;;;;;12.13;8.43;;;;;;;19.91;43.56;100926.71;1733706;81;21281;-78
2022/10/25 02:01:51;;;;;;;13.55;8.30;;;;;;;19.91;43.56;100920.37;1670716;84;21120;-78
2022/10/25 02:04:53;;;;;;;14.28;8.60;;;;;;;19.91;43.58;100925.89;1727965;81;20936;-78
2022/10/25 02:07:36;;;;;;;12.07;8.25;;;;;;;19.91;43.55;100921.75;1733060;81;21016;-78
2022/10/25 02:10:29;;;;;;;11.28;8.20;;;;;;;19.90;43.55;100927.04;1732927;81;21111;-77
2022/10/25 02:13:22;;;;;;;11.18;8.30;;;;;;;19.90;43.55;100926.45;1733496;81;21144;-77
2022/10/25 02:16:05;;;;;;;13.38;8.10;;;;;;;19.90;43.56;100922.90;1688422;83;21459;-78
2022/10/25 02:18:34;;;;;;;13.03;8.90;;;;;;;19.89;43.56;100920.70;1733845;81;21063;-77
2022/10/25 02:21:01;;;;;;;13.60;9.25;;;;;;;19.89;43.57;100917.94;1733464;82;21163;-77
2022/10/25 02:23:27;;;;;;;12.73;8.28;;;;;;;19.89;43.56;100922.08;1733652;81;21038;-77
2022/10/25 02:25:53;;;;;;;12.18;8.75;;;;;;;19.89;43.60;100918.50;1733807;82;21067;-77
2022/10/25 02:28:22;;;;;;;12.35;8.48;;;;;;;19.89;43.61;100919.31;1732552;81;21046;-77
2022/10/25 02:30:48;;;;;;;12.23;8.83;;;;;;;19.89;43.60;100917.94;1731963;82;22283;-77
2022/10/25 02:33:14;;;;;;;11.28;8.40;;;;;;;19.90;43.58;100921.52;1679531;82;21032;-77
2022/10/25 02:35:41;;;;;;;11.33;7.85;;;;;;;19.92;43.60;100926.16;1688007;80;21106;-77
2022/10/25 02:38:07;;;;;;;12.43;8.23;;;;;;;19.91;43.60;100920.37;1751834;80;21191;-77
2022/10/25 02:40:33;;;;;;;10.90;8.60;;;;;;;19.90;43.57;100920.92;1751910;80;20988;-78
2022/10/25 02:42:59;;;;;;;14.18;8.68;;;;;;;19.90;43.57;100926.45;1751486;80;21031;-77
2022/10/25 02:45:26;;;;;;;12.45;8.85;;;;;;;19.91;43.58;100923.12;1751645;80;21091;-77
2022/10/25 02:47:52;;;;;;;13.93;8.48;;;;;;;19.91;43.55;100925.89;1751941;81;21469;-77
2022/10/25 02:50:18;;;;;;;13.58;8.38;;;;;;;19.91;43.55;100924.51;1751627;80;22069;-77
2022/10/25 02:52:44;;;;;;;11.20;8.10;;;;;;;19.92;43.55;100932.49;1751697;80;21411;-78
2022/10/25 02:55:10;;;;;;;11.88;8.65;;;;;;;19.91;43.58;100934.99;1751884;80;21107;-78
2022/10/25 02:57:37;;;;;;;11.97;8.13;;;;;;;19.92;43.56;100931.67;1751449;80;21497;-77
2022/10/25 03:00:05;;;;;;;15.58;8.93;;;;;;;19.93;43.54;100930.55;1751769;80;21047;-77
2022/10/25 03:02:31;;;;;;;12.68;8.88;;;;;;;19.92;43.55;100926.97;1752751;81;21010;-78
2022/10/25 03:04:57;;;;;;;13.38;8.60;;;;;;;19.92;43.55;100928.91;1749017;80;21052;-77
2022/10/25 03:07:24;;;;;;;11.85;8.15;;;;;;;19.92;43.52;100922.01;1728991;81;21013;-77
2022/10/25 03:09:50;;;;;;;13.88;8.95;;;;;;;19.92;43.53;100926.97;1729040;82;21051;-77
2022/10/25 03:12:16;;;;;;;13.10;9.18;;;;;;;19.92;43.54;100920.63;1728926;81;21079;-77
2022/10/25 03:14:42;;;;;;;14.18;8.80;;;;;;;19.90;43.54;100912.64;1729028;81;21567;-77
2022/10/25 03:17:08;;;;;;;14.00;8.48;;;;;;;19.92;43.52;100922.83;1729036;81;21031;-77
2022/10/25 03:19:35;;;;;;;15.50;9.08;;;;;;;19.92;43.50;100916.48;1728769;82;21523;-77
2022/10/25 03:22:01;;;;;;;13.32;8.83;;;;;;;19.92;43.51;100914.55;1729075;83;21115;-77
2022/10/25 03:24:27;;;;;;;12.80;8.85;;;;;;;19.92;43.52;100917.31;1728830;83;20985;-77
2022/10/25 03:26:53;;;;;;;13.93;8.60;;;;;;;19.91;43.50;100907.38;1728705;81;21156;-77
2022/10/25 03:29:20;;;;;;;12.10;8.90;;;;;;;19.91;43.52;100906.00;1728761;82;21506;-78
2022/10/25 03:31:46;;;;;;;13.72;9.05;;;;;;;19.91;43.49;100906.00;1728525;82;21041;-77
2022/10/25 03:34:12;;;;;;;12.33;8.70;;;;;;;19.92;43.51;100906.27;1728874;81;21143;-77
2022/10/25 03:36:38;;;;;;;12.43;8.33;;;;;;;19.92;43.50;100899.92;1709176;83;21074;-77
2022/10/25 03:39:05;;;;;;;15.85;9.68;;;;;;;19.92;43.47;100899.92;1727408;83;21288;-77
2022/10/25 03:41:31;;;;;;;13.72;9.03;;;;;;;19.91;43.47;100892.20;1727374;81;21008;-78
2022/10/25 03:43:57;;;;;;;14.40;9.35;;;;;;;19.89;43.49;100887.56;1729207;81;20913;-77
2022/10/25 03:46:23;;;;;;;13.30;8.70;;;;;;;19.91;43.48;100890.81;1728985;81;21080;-77
2022/10/25 03:48:49;;;;;;;15.63;8.85;;;;;;;19.92;43.48;100893.02;1729015;81;21015;-77
2022/10/25 03:51:15;;;;;;;13.32;8.50;;;;;;;19.90;43.48;100893.31;1729296;81;21898;-77
2022/10/25 03:53:42;;;;;;;11.95;8.85;;;;;;;19.91;43.48;100892.75;1729222;81;20997;-78
2022/10/25 03:56:08;;;;;;;14.70;9.03;;;;;;;19.92;43.48;100893.84;1728868;81;21055;-77
2022/10/25 03:58:34;;;;;;;13.22;8.83;;;;;;;19.90;43.48;100887.80;1729294;81;21001;-78
2022/10/25 04:01:00;;;;;;;13.90;8.90;;;;;;;19.90;43.48;100885.03;1729018;82;21060;-77
2022/10/25 04:03:26;;;;;;;14.30;8.90;;;;;;;19.90;43.49;100880.89;1729014;81;21180;-77
2022/10/25 04:05:53;;;;;;;12.70;8.50;;;;;;;19.90;43.48;100879.51;1730543;81;21103;-77
2022/10/25 04:08:19;;;;;;;13.80;9.13;;;;;;;19.90;43.49;100878.13;1733673;81;21554;-77
2022/10/25 04:10:46;;;;;;;16.40;10.00;;;;;;;19.89;43.49;100882.04;1733205;81;21051;-77
2022/10/25 04:13:12;;;;;;;14.20;9.70;;;;;;;19.90;43.49;100880.89;1733001;81;21072;-77
2022/10/25 04:15:38;;;;;;;15.15;8.68;;;;;;;19.90;43.47;100876.75;1732998;81;21631;-77
2022/10/25 04:18:05;;;;;;;16.62;9.85;;;;;;;19.89;43.48;100873.76;1747138;80;20996;-77
2022/10/25 04:20:37;;;;;;;11.55;8.68;;;;;;;19.90;43.46;100880.10;1751278;80;21059;-77
2022/10/25 04:23:03;;;;;;;14.35;9.23;;;;;;;19.89;43.49;100882.04;1751685;81;21546;-77
2022/10/25 04:25:30;;;;;;;13.98;9.13;;;;;;;19.88;43.48;100877.64;1751399;80;21075;-77
2022/10/25 04:27:58;;;;;;;12.58;8.85;;;;;;;19.88;43.46;100872.12;1751850;80;21112;-77
2022/10/25 04:30:24;;;;;;;14.03;8.93;;;;;;;19.89;43.46;100876.52;1751816;80;21036;-77
2022/10/25 04:32:50;;;;;;;13.60;9.10;;;;;;;19.87;43.47;100881.52;1751600;80;21079;-77
2022/10/25 04:35:16;;;;;;;15.60;9.40;;;;;;;19.88;43.47;100880.40;1754102;81;20988;-77
2022/10/25 04:37:43;;;;;;;14.93;9.63;;;;;;;19.88;43.49;100880.40;1759593;80;21087;-77
2022/10/25 04:40:10;;;;;;;14.23;8.83;;;;;;;19.89;43.46;100879.84;1759698;80;21267;-78
2022/10/25 04:42:36;;;;;;;12.05;8.75;;;;;;;19.88;43.44;100873.50;1759667;80;20976;-78
2022/10/25 04:45:03;;;;;;;15.93;9.43;;;;;;;19.87;43.47;100874.62;1759980;80;20999;-77
2022/10/25 04:47:31;;;;;;;15.13;9.73;;;;;;;19.87;43.47;100876.00;1759319;80;21055;-78
2022/10/25 04:49:57;;;;;;;14.43;9.03;;;;;;;19.88;43.46;100869.36;1759928;81;21004;-78
2022/10/25 04:52:24;;;;;;;14.63;9.43;;;;;;;19.88;43.47;100868.53;1759382;80;21094;-78
2022/10/25 04:54:50;;;;;;;13.95;9.98;;;;;;;19.86;43.49;100872.98;1742403;80;21070;-77
2022/10/25 04:57:16;;;;;;;13.95;9.30;;;;;;;19.87;43.50;100880.70;1731327;81;21024;-77
2022/10/25 04:59:42;;;;;;;15.72;9.65;;;;;;;19.86;43.48;100879.09;1732336;81;21056;-77
2022/10/25 05:02:09;;;;;;;16.32;9.70;;;;;;;19.87;43.48;100884.84;1732243;81;21071;-77
2022/10/25 05:04:36;;;;;;;13.95;8.93;;;;;;;19.86;43.45;100884.02;1732547;81;21581;-77
2022/10/25 05:07:02;;;;;;;14.15;9.18;;;;;;;19.86;43.45;100882.64;1737220;80;21016;-77
2022/10/25 05:09:28;;;;;;;12.85;9.08;;;;;;;19.85;43.46;100882.41;1738818;82;21062;-77
2022/10/25 05:11:54;;;;;;;13.88;8.05;;;;;;;19.86;43.48;100885.41;1715339;81;21526;-76
2022/10/25 05:14:21;;;;;;;14.55;7.25;;;;;;;19.87;43.51;100889.80;1711113;82;21086;-77
2022/10/25 05:16:47;;;;;;;11.03;7.72;;;;;;;19.89;43.64;100893.09;1726895;81;21451;-77
2022/10/25 05:19:13;;;;;;;11.35;8.18;;;;;;;19.94;43.69;100883.88;1682110;83;21734;-77
2022/10/25 05:21:39;;;;;;;12.30;8.33;;;;;;;19.98;43.69;100880.73;1684228;84;21106;-77
2022/10/25 05:24:06;;;;;;;14.03;8.15;;;;;;;20.02;43.64;100888.66;1664074;85;21078;-77
2022/10/25 05:26:32;;;;;;;18.00;9.30;;;;;;;20.06;43.58;100897.39;1680516;83;21110;-77
2022/10/25 05:28:58;;;;;;;15.70;8.10;;;;;;;20.13;43.53;100900.27;1688356;83;21111;-77
2022/10/25 05:31:30;;;;;;;13.13;8.70;;;;;;;20.18;43.51;100902.35;1698659;82;21094;-77
2022/10/25 05:33:59;;;;;;;11.12;8.00;;;;;;;20.25;43.47;100911.58;1691990;83;22179;-76
2022/10/25 05:36:27;;;;;;;13.32;8.13;;;;;;;20.31;43.40;100908.42;1691789;84;21622;-76
2022/10/25 05:38:53;;;;;;;14.25;8.20;;;;;;;20.40;43.33;100912.64;1692235;84;21058;-77
2022/10/25 05:41:19;;;;;;;12.37;8.25;;;;;;;20.48;43.26;100915.47;1678841;83;21300;-77
2022/10/25 05:43:46;;;;;;;16.67;8.40;;;;;;;20.56;43.16;100926.33;1664593;84;21412;-77
2022/10/25 05:46:18;;;;;;;12.35;8.05;;;;;;;20.65;43.06;100925.83;1670555;83;21056;-77
2022/10/25 05:48:44;;;;;;;11.55;8.40;;;;;;;20.74;42.98;100928.66;1696353;81;21092;-77
2022/10/25 05:51:18;;;;;;;13.93;8.83;;;;;;;20.85;42.87;100939.13;1727567;81;21074;-77
2022/10/25 05:53:48;;;;;;;11.95;8.83;;;;;;;20.95;42.74;100944.41;1727577;81;21487;-77
2022/10/25 05:56:14;;;;;;;12.33;7.92;;;;;;;21.06;42.63;100939.97;1727406;81;21557;-77
2022/10/25 05:58:41;;;;;;;14.85;8.98;;;;;;;21.16;42.52;100941.94;1724004;82;21067;-77
2022/10/25 06:01:11;;;;;;;12.58;8.33;;;;;;;21.26;42.42;100942.23;1693125;83;21068;-76
2022/10/25 06:03:37;;;;;;;12.40;8.75;;;;;;;21.35;42.30;100948.04;1693328;83;21111;-77
2022/10/25 06:06:06;;;;;;;13.78;9.03;;;;;;;21.46;42.20;100951.92;1720810;81;21106;-77
2022/10/25 06:08:32;;;;;;;11.43;8.20;;;;;;;21.53;42.10;100951.70;1745201;81;21098;-77
2022/10/25 06:11:10;;;;;;;13.68;8.43;;;;;;;21.60;42.02;100950.66;1746038;81;21520;-77
2022/10/25 06:13:36;;;;;;;16.50;8.73;;;;;;;21.70;41.92;100953.14;1746027;80;21086;-76
2022/10/25 06:16:07;;;;;;;13.90;8.48;;;;;;;21.77;41.80;100943.78;1746334;80;22508;-77
2022/10/25 06:18:34;;;;;;;13.85;9.15;;;;;;;21.83;41.71;100938.34;1747343;79;21123;-76
2022/10/25 06:21:02;;;;;;;14.23;8.75;;;;;;;21.88;41.63;100942.92;1755918;79;21037;-77
2022/10/25 06:23:30;;;;;;;15.58;9.35;;;;;;;21.92;41.59;100941.70;1742195;82;21059;-77
2022/10/25 06:26:05;;;;;;;12.58;8.45;;;;;;;21.95;41.56;100948.82;1745201;80;21473;-77
2022/10/25 06:28:32;;;;;;;13.85;8.98;;;;;;;21.99;41.54;100948.98;1741279;80;21043;-78
2022/10/25 06:31:04;;;;;;;12.82;8.43;;;;;;;22.00;41.54;100945.09;1759414;80;21647;-78
2022/10/25 06:33:31;;;;;;;15.15;7.95;;;;;;;22.00;41.59;100936.77;1757609;80;21054;-76
2022/10/25 06:35:58;;;;;;;17.02;8.45;;;;;;;22.02;41.67;100937.28;1730562;81;21050;-75
2022/10/25 06:38:25;;;;;;;14.95;7.97;;;;;;;22.02;41.69;100945.59;1747762;81;21083;-77
2022/10/25 06:41:00;;;;;;;11.73;8.15;;;;;;;22.02;41.75;100945.59;1754648;80;21113;-78
2022/10/25 06:43:27;;;;;;;13.55;8.10;;;;;;;22.00;41.80;100947.29;1752259;79;21491;-80
2022/10/25 06:45:59;;;;;;;12.25;7.80;;;;;;;21.99;41.88;100948.98;1745070;80;21132;-79
2022/10/25 06:48:26;;;;;;;15.83;8.33;;;;;;;21.96;41.99;100944.10;1740212;80;21136;-79
2022/10/25 06:51:08;;;;;;;16.90;8.75;;;;;;;21.95;42.14;100946.62;1744970;80;21055;-80
2022/10/25 06:53:35;;;;;;;13.55;9.05;;;;;;;21.91;42.26;100946.42;1743846;80;21121;-81
2022/10/25 06:56:02;;;;;;;15.75;8.85;;;;;;;21.91;42.40;100941.45;1737505;81;21132;-79
2022/10/25 06:58:29;;;;;;;11.10;7.87;;;;;;;21.87;42.54;100946.26;1734818;81;21300;-81
2022/10/25 07:01:05;;;;;;;14.15;9.38;;;;;;;21.84;42.67;100943.33;1727358;81;21050;-78
2022/10/25 07:03:34;;;;;;;12.47;9.00;;;;;;;21.81;42.82;100935.07;1743263;81;21082;-78
2022/10/25 07:06:14;;;;;;;14.68;9.95;;;;;;;21.78;42.97;100927.41;1741249;80;21098;-78
2022/10/25 07:08:42;;;;;;;14.67;9.50;;;;;;;21.74;43.16;100926.43;1672387;83;21857;-79
2022/10/25 07:11:15;;;;;;;14.65;9.85;;;;;;;21.71;43.31;100927.08;1730182;81;21043;-78
2022/10/25 07:13:41;;;;;;;17.05;9.83;;;;;;;21.68;43.46;100914.45;1730083;82;21628;-78
2022/10/25 07:16:09;;;;;;;15.05;9.23;;;;;;;21.65;43.63;100921.44;1731781;81;21079;-79
2022/10/25 07:18:36;;;;;;;17.20;10.70;;;;;;;21.64;43.76;100917.63;1755052;81;21075;-79
2022/10/25 07:21:07;;;;;;;20.92;9.53;;;;;;;21.59;43.88;100910.28;1735676;81;21154;-79
2022/10/25 07:23:33;;;;;;;16.55;9.70;;;;;;;21.58;43.97;100914.74;1728000;81;21133;-79
2022/10/25 07:25:59;;;;;;;13.40;9.45;;;;;;;21.56;44.06;100917.00;1731209;80;21421;-80
2022/10/25 07:28:26;;;;;;;16.93;10.48;;;;;;;21.53;44.17;100910.17;1696512;81;20873;-78
2022/10/25 07:30:52;;;;;;;18.25;9.65;;;;;;;21.50;44.25;100906.67;1747332;81;21118;-79
2022/10/25 07:33:19;;;;;;;15.32;8.63;;;;;;;21.49;44.29;100906.98;1658918;84;22134;-79
2022/10/25 07:35:49;;;;;;;17.40;9.68;;;;;;;21.48;44.42;100902.01;1734140;81;21071;-79
2022/10/25 07:38:15;;;;;;;18.57;9.88;;;;;;;21.47;44.49;100897.63;1742774;80;21043;-79
2022/10/25 07:40:42;;;;;;;20.15;8.90;;;;;;;21.47;44.51;100903.17;1732645;81;21144;-81
2022/10/25 07:43:08;;;;;;;20.40;9.08;;;;;;;21.45;44.54;100903.22;1730181;81;21671;-79
2022/10/25 07:45:36;;;;;;;18.60;9.18;;;;;;;21.41;44.59;100898.34;1736424;80;22021;-80
2022/10/25 07:48:02;;;;;;;17.87;9.28;;;;;;;21.41;44.61;100893.36;1734917;80;21153;-80
2022/10/25 07:50:28;;;;;;;24.40;9.38;;;;;;;21.38;44.67;100888.48;1741047;80;21098;-79
2022/10/25 07:52:56;;;;;;;16.40;9.30;;;;;;;21.38;44.71;100884.33;1743732;80;21539;-80
2022/10/25 07:55:23;;;;;;;20.75;9.63;;;;;;;21.35;44.76;100875.27;1732468;81;21043;-79
2022/10/25 07:57:49;;;;;;;17.80;9.78;;;;;;;21.34;44.80;100881.36;1730586;81;21102;-79
2022/10/25 08:00:16;;;;;;;15.40;8.88;;;;;;;21.34;44.87;100879.19;1716124;81;21641;-79
2022/10/25 08:02:43;;;;;;;18.50;8.85;;;;;;;21.31;44.92;100874.27;1717386;81;21298;-79
2022/10/25 08:05:09;;;;;;;13.95;7.95;;;;;;;21.30;44.98;100866.53;1711150;81;21632;-79
2022/10/25 08:07:36;;;;;;;16.62;8.80;;;;;;;21.28;45.02;100860.52;1714668;81;21086;-79
2022/10/25 08:10:02;;;;;;;15.85;8.58;;;;;;;21.25;45.08;100855.64;1715834;81;21174;-79
2022/10/25 08:12:29;;;;;;;12.50;8.65;;;;;;;21.26;45.11;100853.69;1705075;81;21080;-79
2022/10/25 08:14:55;;;;;;;17.35;9.48;;;;;;;21.25;45.15;100853.44;1742487;80;21590;-79
2022/10/25 08:17:21;;;;;;;13.25;8.45;;;;;;;21.24;45.18;100850.41;1721015;81;21067;-79
2022/10/25 08:19:47;;;;;;;14.73;8.40;;;;;;;21.24;45.19;100844.88;1725451;81;21123;-81
2022/10/25 08:22:14;;;;;;;12.07;7.78;;;;;;;21.22;45.20;100849.34;1730102;81;21338;-79
2022/10/25 08:24:40;;;;;;;16.32;8.33;;;;;;;21.21;45.23;100838.61;1702229;81;21100;-80
2022/10/25 08:27:06;;;;;;;15.03;8.35;;;;;;;21.20;45.26;100841.95;1725693;81;21028;-80
2022/10/25 08:29:33;;;;;;;16.17;8.28;;;;;;;21.19;45.27;100837.54;1723865;81;21527;-79
2022/10/25 08:31:59;;;;;;;15.93;8.93;;;;;;;21.18;45.27;100840.62;1679079;83;21110;-79
2022/10/25 08:34:25;;;;;;;17.45;9.23;;;;;;;21.18;45.27;100837.28;1731841;81;21132;-80
2022/10/25 08:36:52;;;;;;;14.10;8.05;;;;;;;21.17;45.30;100840.39;1692819;82;39092;-79
2022/10/25 08:39:19;;;;;;;13.68;8.40;;;;;;;21.16;45.31;100835.42;1729976;81;21598;-81
2022/10/25 08:41:59;;;;;;;13.03;8.23;;;;;;;21.16;45.33;100840.14;1729866;81;21479;-79
2022/10/25 08:44:47;;;;;;;15.83;8.03;;;;;;;21.16;45.35;100837.37;1734283;81;21095;-81
2022/10/25 08:47:34;;;;;;;13.35;7.78;;;;;;;21.14;45.35;100828.00;1727378;81;21285;-80
2022/10/25 08:50:07;;;;;;;14.53;8.58;;;;;;;21.13;45.34;100829.13;1677847;83;21063;-80
2022/10/25 08:52:46;;;;;;;11.90;8.25;;;;;;;21.11;45.34;100830.00;1700875;81;21577;-80
2022/10/25 08:55:19;;;;;;;14.47;7.83;;;;;;;21.12;45.36;100828.90;1721502;81;21147;-79
2022/10/25 08:57:45;;;;;;;14.47;6.95;;;;;;;21.10;45.34;100826.98;1660131;83;21145;-80
2022/10/25 09:00:19;;;;;;;14.00;8.50;;;;;;;21.10;45.32;100822.01;1677087;83;21123;-79
2022/10/25 09:02:58;;;;;;;12.60;8.03;;;;;;;21.10;45.35;100827.55;1700250;82;21847;-80
2022/10/25 09:05:40;;;;;;;11.68;7.87;;;;;;;21.10;45.39;100827.55;1677155;83;21422;-80
2022/10/25 09:08:24;;;;;;;15.80;7.30;;;;;;;21.08;45.36;100822.34;1724235;81;21055;-80
2022/10/25 09:11:23;;;;;;;10.98;7.37;;;;;;;21.08;45.34;100827.06;1731401;80;21067;-80
2022/10/25 09:14:16;;;;;;;17.20;7.92;;;;;;;21.08;45.34;100835.36;1711185;81;21184;-81
2022/10/25 09:16:52;;;;;;;13.93;6.80;;;;;;;21.07;45.31;100828.19;1723611;81;21530;-81
2022/10/25 09:19:58;;;;;;;14.10;7.75;;;;;;;21.06;45.30;100831.52;1725434;81;21043;-80
2022/10/25 09:22:33;;;;;;;9.90;6.90;;;;;;;21.05;45.30;100829.87;1710798;81;21431;-80
2022/10/25 09:25:04;;;;;;;10.70;6.95;;;;;;;21.05;45.29;100824.95;1725642;81;21534;-80
2022/10/25 09:27:38;;;;;;;;;;;;;;;21.05;45.28;100820.80;1725902;81;21776;-80
2022/10/25 09:30:10;;;;;;;13.22;7.42;;;;;;;21.05;45.29;100822.97;1726574;82;20186;-81
2022/10/25 09:32:44;;;;;;;11.00;7.10;;;;;;;21.03;45.24;100810.61;1730613;81;21123;-81
2022/10/25 09:35:22;;;;;;;15.08;6.47;;;;;;;21.03;45.26;100803.69;1721332;81;21382;-80
2022/10/25 09:37:52;;;;;;;12.95;6.47;;;;;;;21.03;45.31;100801.73;1668845;84;21126;-80
2022/10/25 09:40:25;;;;;;;13.08;7.08;;;;;;;21.03;45.33;100800.92;1670563;83;21109;-80
2022/10/25 09:42:57;;;;;;;15.35;7.53;;;;;;;21.03;45.29;100798.16;1711100;81;21096;-80
2022/10/25 09:45:57;;;;;;;10.03;7.12;;;;;;;21.02;45.32;100800.67;1722287;81;21610;-80
2022/10/25 09:48:34;;;;;;;13.20;6.92;;;;;;;21.03;45.31;100796.77;1716904;81;22156;-80
2022/10/25 09:51:12;;;;;;;11.25;6.45;;;;;;;21.02;45.32;100782.69;1715815;81;21282;-80
2022/10/25 09:53:45;;;;;;;12.95;6.53;;;;;;;21.03;45.34;100784.33;1727928;80;21316;-80
2022/10/25 09:56:11;;;;;;;11.30;5.92;;;;;;;21.03;45.33;100776.03;1730076;82;21115;-81
2022/10/25 09:58:41;;;;;;;12.43;6.65;;;;;;;21.02;45.32;100775.77;1723898;81;21056;-80
2022/10/25 10:01:15;;;;;;;9.38;6.35;;;;;;;21.03;45.33;100771.88;1707469;81;21155;-80
2022/10/25 10:03:41;;;;;;;17.73;7.00;;;;;;;21.03;45.29;100765.78;1713153;82;21484;-80
2022/10/25 10:06:24;;;;;;;13.95;6.85;;;;;;;21.03;45.29;100763.58;1721981;81;21288;-81
2022/10/25 10:09:04;;;;;;;11.88;6.85;;;;;;;21.03;45.30;100759.44;1717153;81;21126;-80
2022/10/25 10:11:31;;;;;;;10.85;6.00;;;;;;;21.02;45.32;100760.56;1733559;80;21075;-80
2022/10/25 10:14:31;;;;;;;12.35;6.03;;;;;;;21.01;45.34;100765.27;1744050;80;21896;-80
2022/10/25 10:16:57;;;;;;;13.88;6.87;;;;;;;21.02;45.34;100764.14;1640336;85;21506;-79
2022/10/25 10:19:25;;;;;;;12.70;6.33;;;;;;;21.01;45.36;100758.36;1714467;82;21976;-80
2022/10/25 10:22:00;;;;;;;13.00;6.85;;;;;;;21.00;45.37;100756.75;1717511;82;21588;-80
2022/10/25 10:24:32;;;;;;;9.65;6.97;;;;;;;21.00;45.41;100749.02;1724326;81;21103;-80
2022/10/25 10:27:08;;;;;;;19.32;6.78;;;;;;;21.00;45.44;100755.37;1714487;82;21027;-80
2022/10/25 10:29:36;;;;;;;11.35;6.33;;;;;;;20.98;45.43;100746.00;1728477;81;21051;-80
2022/10/25 10:32:06;;;;;;;10.48;6.65;;;;;;;20.97;45.45;100738.83;1741439;81;22075;-81
2022/10/25 10:34:43;;;;;;;14.25;7.00;;;;;;;20.97;45.46;100738.02;1722554;80;21101;-80
2022/10/25 10:37:22;;;;;;;11.57;7.05;;;;;;;20.97;45.47;100736.62;1701042;82;21387;-80
2022/10/25 10:40:18;;;;;;;11.90;7.05;;;;;;;20.96;45.49;100735.81;1741918;80;21540;-80
2022/10/25 10:42:44;;;;;;;12.03;7.28;;;;;;;20.96;45.48;100730.88;1744584;81;21043;-81
2022/10/25 10:45:17;;;;;;;14.47;7.47;;;;;;;20.94;45.50;100727.60;1741646;82;21107;-79
2022/10/25 10:47:56;;;;;;;11.73;7.15;;;;;;;20.93;45.49;100722.63;1745259;81;21992;-79
2022/10/25 10:50:27;;;;;;;14.87;7.33;;;;;;;20.92;45.53;100729.30;1737364;81;21045;-79
2022/10/25 10:53:01;;;;;;;;;;;;;;;20.92;45.51;100716.84;1748075;80;21097;-81
2022/10/25 10:55:33;;;;;;;16.93;6.28;;;;;;;20.91;45.53;100715.24;1774284;80;20171;-80
2022/10/25 10:58:25;;;;;;;15.98;7.70;;;;;;;20.90;45.45;100706.69;1738641;80;21101;-80
2022/10/25 11:01:07;;;;;;;12.63;6.72;;;;;;;20.91;45.45;100708.89;1734399;80;21662;-78
2022/10/25 11:03:44;;;;;;;12.98;6.53;;;;;;;20.88;45.46;100713.09;1677427;84;21134;-79
2022/10/25 11:06:29;;;;;;;14.00;7.45;;;;;;;20.91;45.46;100714.42;1741089;81;21110;-79
2022/10/25 11:09:15;;;;;;;16.37;7.53;;;;;;;20.90;45.48;100705.31;1734452;81;21550;-79
2022/10/25 11:11:42;;;;;;;9.10;6.85;;;;;;;20.89;45.46;100711.97;1724676;80;21164;-79
2022/10/25 11:14:12;;;;;;;13.98;7.37;;;;;;;20.89;45.48;100709.20;1714704;83;21515;-79
2022/10/25 11:16:53;;;;;;;16.87;7.63;;;;;;;20.89;45.47;100704.23;1721854;82;21031;-81
2022/10/25 11:19:35;;;;;;;;;;;;;;;20.88;45.50;100694.31;1747477;81;21067;-80
2022/10/25 11:22:45;;;;;;;11.28;6.50;;;;;;;20.87;45.55;100692.14;1720426;83;20150;-79
2022/10/25 11:25:29;;;;;;;15.50;6.60;;;;;;;20.87;45.55;100683.84;1717319;82;21633;-79
2022/10/25 11:28:13;;;;;;;11.78;6.90;;;;;;;20.86;45.57;100678.63;1719399;82;21059;-79
2022/10/25 11:31:03;;;;;;;15.68;7.40;;;;;;;20.86;45.54;100671.14;1727479;82;21083;-79
2022/10/25 11:33:51;;;;;;;13.10;7.07;;;;;;;20.87;45.55;100671.39;1721230;82;21083;-81
2022/10/25 11:36:31;;;;;;;11.95;6.40;;;;;;;20.87;45.56;100653.98;1725143;82;21110;-79
2022/10/25 11:39:12;;;;;;;11.45;7.70;;;;;;;20.88;45.52;100656.98;1718294;83;21883;-79
2022/10/25 11:42:09;;;;;;;14.38;7.85;;;;;;;20.88;45.58;100658.36;1699348;83;21107;-79